Time;durP1;ratioP1;P1;durP2;ratioP2;P2;SDS_P1;SDS_P2;PMS_P1;PMS_P2;Temp;Humidity;BMP_temperature;BMP_pressure;BME280_temperature;BME280_humidity;BME280_pressure;Samples;Min_cycle;Max_cycle;Signal;HPM_P1;HPM_P2
2022/07/11 00:00:12;;;;;;;20.27;14.45;;;;;;;22.12;100.00;99750.61;1781832;80;21017;-90
2022/07/11 00:02:39;;;;;;;20.48;15.63;;;;;;;22.12;100.00;99746.62;1717676;83;21094;-90
2022/07/11 00:05:09;;;;;;;19.92;15.38;;;;;;;22.11;100.00;99737.05;1747463;82;21081;-89
2022/07/11 00:07:37;;;;;;;20.97;15.35;;;;;;;22.08;100.00;99740.11;1782889;80;21025;-90
2022/07/11 00:10:06;;;;;;;21.55;16.15;;;;;;;22.05;100.00;99758.09;1717704;83;21066;-90
2022/07/11 00:12:35;;;;;;;24.23;15.28;;;;;;;22.04;100.00;99756.45;1717889;83;21094;-90
2022/07/11 00:15:04;;;;;;;23.30;16.48;;;;;;;22.02;100.00;99735.97;1782318;80;21705;-89
2022/07/11 00:17:31;;;;;;;25.05;16.42;;;;;;;21.92;100.00;99726.86;1717475;83;21086;-89
2022/07/11 00:19:58;;;;;;;23.75;15.63;;;;;;;21.74;100.00;99729.19;1747908;82;21002;-90
2022/07/11 00:22:27;;;;;;;20.32;15.88;;;;;;;21.64;100.00;99734.61;1782262;80;21009;-88
2022/07/11 00:24:54;;;;;;;18.65;15.58;;;;;;;21.59;100.00;99729.45;1717618;82;21111;-90
2022/07/11 00:27:22;;;;;;;21.15;15.23;;;;;;;21.57;100.00;99723.53;1747949;82;21156;-89
2022/07/11 00:29:51;;;;;;;17.55;14.43;;;;;;;21.50;100.00;99722.72;1781854;80;21057;-89
2022/07/11 00:32:18;;;;;;;15.43;13.58;;;;;;;21.42;100.00;99729.08;1717650;83;21058;-91
2022/07/11 00:34:46;;;;;;;18.85;14.73;;;;;;;21.38;100.00;99729.17;1744471;82;21030;-90
2022/07/11 00:37:13;;;;;;;19.12;14.23;;;;;;;21.35;100.00;99720.31;1707660;84;21110;-90
2022/07/11 00:39:41;;;;;;;21.90;15.55;;;;;;;21.27;100.00;99711.30;1707708;84;21186;-89
2022/07/11 00:42:08;;;;;;;17.65;14.28;;;;;;;21.05;100.00;99716.83;1737435;82;21038;-89
2022/07/11 00:44:37;;;;;;;17.98;14.95;;;;;;;20.84;100.00;99713.09;1707761;83;21069;-88
2022/07/11 00:47:05;;;;;;;16.42;14.23;;;;;;;20.73;100.00;99714.00;1707699;83;21117;-90
2022/07/11 00:49:32;;;;;;;17.05;15.00;;;;;;;20.67;100.00;99712.16;1737149;82;21351;-89
2022/07/11 00:51:59;;;;;;;15.55;13.70;;;;;;;20.59;100.00;99706.55;1707872;84;21170;-88
2022/07/11 00:54:28;;;;;;;19.15;15.70;;;;;;;20.53;100.00;99704.72;1707371;83;21050;-89
2022/07/11 00:56:56;;;;;;;16.85;13.95;;;;;;;20.51;100.00;99703.30;1737208;82;21097;-90
2022/07/11 00:59:23;;;;;;;19.80;14.73;;;;;;;20.43;100.00;99691.91;1707143;84;21062;-88
2022/07/11 01:01:50;;;;;;;15.78;14.10;;;;;;;20.37;100.00;99690.09;1707263;83;21563;-89
2022/07/11 01:04:17;;;;;;;14.55;13.05;;;;;;;20.28;100.00;99693.41;1737078;82;21136;-89
2022/07/11 01:06:44;;;;;;;16.55;13.88;;;;;;;20.21;100.00;99689.15;1707715;84;21598;-88
2022/07/11 01:09:12;;;;;;;17.62;14.07;;;;;;;20.10;100.00;99695.84;1707585;84;21504;-88
2022/07/11 01:11:40;;;;;;;15.30;13.48;;;;;;;20.00;100.00;99693.08;1737192;82;21029;-89
2022/07/11 01:14:07;;;;;;;16.32;13.93;;;;;;;19.91;100.00;99686.34;1706060;83;21054;-91
2022/07/11 01:16:34;;;;;;;19.55;14.07;;;;;;;19.86;100.00;99686.14;1707847;83;21635;-92
2022/07/11 01:19:01;;;;;;;16.32;14.38;;;;;;;19.83;100.00;99685.97;1736732;82;21034;-91
2022/07/11 01:21:41;;;;;;;17.27;14.68;;;;;;;19.84;100.00;99689.45;1707013;83;21073;-91
2022/07/11 01:24:09;;;;;;;17.85;14.13;;;;;;;19.84;100.00;99686.80;1707356;83;21094;-89
2022/07/11 01:26:37;;;;;;;22.02;14.03;;;;;;;19.83;100.00;99687.30;1736615;82;21086;-88
2022/07/11 01:29:13;;;;;;;18.40;14.87;;;;;;;19.80;100.00;99681.11;1707580;84;21161;-88
2022/07/11 01:31:42;;;;;;;17.30;14.75;;;;;;;19.78;100.00;99679.69;1707520;83;21137;-89
2022/07/11 01:34:11;;;;;;;20.08;15.15;;;;;;;19.73;100.00;99682.08;1737527;82;21050;-89
2022/07/11 01:36:39;;;;;;;17.87;14.63;;;;;;;19.67;100.00;99672.63;1708092;83;21049;-88
2022/07/11 01:39:06;;;;;;;20.27;15.13;;;;;;;19.61;100.00;99673.92;1707040;84;21014;-88
2022/07/11 01:41:34;;;;;;;21.82;15.30;;;;;;;19.55;100.00;99671.55;1737282;82;21153;-89
2022/07/11 01:44:01;;;;;;;16.40;14.50;;;;;;;19.52;100.00;99674.61;1707720;84;21077;-88
2022/07/11 01:46:28;;;;;;;17.45;14.95;;;;;;;19.49;100.00;99669.22;1707036;84;21049;-88
2022/07/11 01:48:55;;;;;;;17.07;14.68;;;;;;;19.45;100.00;99673.25;1736800;82;21078;-88
2022/07/11 01:51:24;;;;;;;24.25;16.67;;;;;;;19.42;100.00;99664.42;1707862;84;21703;-88
2022/07/11 01:53:54;;;;;;;18.62;16.70;;;;;;;19.40;100.00;99665.12;1706882;84;22343;-89
2022/07/11 01:56:24;;;;;;;21.45;18.32;;;;;;;19.35;100.00;99663.06;1733568;82;21074;-87
2022/07/11 01:58:51;;;;;;;20.65;17.52;;;;;;;19.33;100.00;99665.08;1707729;84;21026;-88
2022/07/11 02:01:18;;;;;;;20.10;17.67;;;;;;;19.33;100.00;99668.23;1707836;84;21045;-90
2022/07/11 02:03:45;;;;;;;24.87;18.00;;;;;;;19.33;100.00;99673.52;1736597;82;21033;-89
2022/07/11 02:06:13;;;;;;;21.45;17.10;;;;;;;19.33;100.00;99678.80;1707583;84;21171;-89
2022/07/11 02:08:40;;;;;;;23.92;16.57;;;;;;;19.33;100.00;99681.44;1707833;84;21007;-89
2022/07/11 02:11:07;;;;;;;19.27;16.60;;;;;;;19.36;100.00;99687.63;1736988;82;21066;-88
2022/07/11 02:13:35;;;;;;;22.10;16.70;;;;;;;19.39;100.00;99690.69;1707581;83;21046;-88
2022/07/11 02:16:02;;;;;;;20.55;16.02;;;;;;;19.42;100.00;99679.43;1707728;83;21062;-88
2022/07/11 02:18:30;;;;;;;18.45;14.35;;;;;;;19.42;100.00;99678.94;1737121;82;21146;-90
2022/07/11 02:20:57;;;;;;;18.07;14.15;;;;;;;19.40;100.00;99667.76;1707479;84;21113;-88
2022/07/11 02:23:24;;;;;;;22.73;15.60;;;;;;;19.37;100.00;99670.29;1707396;84;21479;-90
2022/07/11 02:25:53;;;;;;;15.95;12.95;;;;;;;19.33;100.00;99676.95;1737075;82;21046;-88
2022/07/11 02:28:20;;;;;;;16.07;14.00;;;;;;;19.29;100.00;99679.69;1707025;84;21041;-91
2022/07/11 02:30:47;;;;;;;15.30;13.22;;;;;;;19.28;100.00;99687.78;1707387;84;21825;-89
2022/07/11 02:33:15;;;;;;;16.77;13.65;;;;;;;19.29;100.00;99689.41;1737319;82;21042;-90
2022/07/11 02:35:46;;;;;;;15.20;13.50;;;;;;;19.33;100.00;99695.43;1711485;83;21063;-88
2022/07/11 02:38:16;;;;;;;16.42;13.10;;;;;;;19.40;100.00;99706.03;1717629;83;21076;-89
2022/07/11 02:40:47;;;;;;;16.12;12.88;;;;;;;19.49;100.00;99708.83;1747387;82;21127;-90
2022/07/11 02:43:15;;;;;;;16.02;13.38;;;;;;;19.59;100.00;99714.25;1781721;80;21534;-90
2022/07/11 02:45:43;;;;;;;15.08;12.37;;;;;;;19.65;100.00;99708.17;1717617;83;21090;-90
2022/07/11 02:48:10;;;;;;;16.65;13.05;;;;;;;19.70;100.00;99705.27;1747335;82;21084;-90
2022/07/11 02:50:38;;;;;;;18.37;13.53;;;;;;;19.77;100.00;99711.06;1781974;80;21435;-89
2022/07/11 02:53:05;;;;;;;19.73;14.85;;;;;;;19.85;100.00;99717.52;1718024;83;21556;-88
2022/07/11 02:55:32;;;;;;;18.02;14.60;;;;;;;19.92;100.00;99728.09;1747465;82;21125;-90
2022/07/11 02:58:00;;;;;;;17.95;13.98;;;;;;;19.99;100.00;99727.11;1782564;80;21555;-90
2022/07/11 03:00:27;;;;;;;20.97;15.08;;;;;;;20.06;100.00;99725.82;1717285;83;22165;-89
2022/07/11 03:02:54;;;;;;;19.00;15.08;;;;;;;20.13;100.00;99726.65;1747269;82;21586;-90
2022/07/11 03:05:22;;;;;;;20.20;14.85;;;;;;;20.18;100.00;99733.98;1782218;80;21101;-89
2022/07/11 03:07:50;;;;;;;19.00;15.85;;;;;;;20.23;100.00;99729.42;1717266;83;21150;-89
2022/07/11 03:10:17;;;;;;;19.95;16.35;;;;;;;20.27;100.00;99730.11;1747802;82;21029;-89
2022/07/11 03:12:45;;;;;;;19.25;15.55;;;;;;;20.34;100.00;99727.48;1782104;80;21013;-90
2022/07/11 03:15:12;;;;;;;21.50;16.62;;;;;;;20.38;100.00;99718.16;1718082;83;21750;-89
2022/07/11 03:17:39;;;;;;;17.90;15.70;;;;;;;20.44;100.00;99721.30;1747647;82;21128;-89
2022/07/11 03:20:08;;;;;;;16.73;14.43;;;;;;;20.49;100.00;99725.47;1782568;80;21859;-90
2022/07/11 03:22:36;;;;;;;17.02;13.75;;;;;;;20.56;100.00;99722.00;1717986;82;21066;-90
2022/07/11 03:25:06;;;;;;;16.20;12.45;;;;;;;20.61;100.00;99720.39;1730087;82;21074;-90
2022/07/11 03:27:34;;;;;;;14.05;12.25;;;;;;;20.68;100.00;99719.08;1716501;83;21089;-90
2022/07/11 03:30:01;;;;;;;20.90;12.70;;;;;;;20.72;100.00;99717.63;1750194;80;21646;-90
2022/07/11 03:32:28;;;;;;;14.58;12.18;;;;;;;20.76;100.00;99712.78;1751269;81;21333;-90
2022/07/11 03:37:43;;;;;;;17.70;12.90;;;;;;;20.85;100.00;99713.40;1751212;80;21070;-89
2022/07/11 03:40:12;;;;;;;17.05;12.35;;;;;;;20.90;100.00;99713.59;1751455;80;21046;-88
2022/07/11 03:42:40;;;;;;;15.93;12.68;;;;;;;20.94;100.00;99713.50;1751292;81;21003;-90
2022/07/11 03:45:08;;;;;;;13.48;10.88;;;;;;;20.97;100.00;99702.48;1751432;81;21196;-89
2022/07/11 03:47:36;;;;;;;16.45;12.73;;;;;;;21.00;100.00;99698.61;1751010;81;21069;-89
2022/07/11 03:50:04;;;;;;;15.40;12.45;;;;;;;21.02;100.00;99700.05;1751406;81;21029;-89
2022/07/11 03:52:32;;;;;;;14.30;12.82;;;;;;;21.03;100.00;99706.95;1751046;81;21025;-89
2022/07/11 03:54:59;;;;;;;17.55;13.83;;;;;;;21.06;100.00;99697.28;1751838;81;21523;-89
2022/07/11 03:57:26;;;;;;;17.45;14.45;;;;;;;21.07;100.00;99690.97;1765128;80;21123;-89
2022/07/11 03:59:53;;;;;;;18.37;14.75;;;;;;;21.08;100.00;99685.98;1760428;80;21061;-90
2022/07/11 04:02:21;;;;;;;18.37;14.00;;;;;;;21.06;100.00;99684.05;1758638;80;21117;-91
2022/07/11 04:04:48;;;;;;;15.40;13.30;;;;;;;21.07;100.00;99693.62;1758573;80;21033;-88
2022/07/11 04:07:15;;;;;;;15.85;13.43;;;;;;;21.05;100.00;99702.79;1764534;80;21527;-89
2022/07/11 04:09:42;;;;;;;15.38;12.37;;;;;;;21.04;100.00;99707.25;1751291;81;21102;-89
2022/07/11 04:12:10;;;;;;;19.85;12.23;;;;;;;21.05;100.00;99708.08;1751263;81;21657;-88
2022/07/11 04:14:37;;;;;;;16.17;11.15;;;;;;;21.07;100.00;99705.53;1751358;81;21021;-89
2022/07/11 04:17:05;;;;;;;11.45;10.35;;;;;;;21.10;100.00;99702.48;1751101;81;21041;-89
2022/07/11 04:19:33;;;;;;;14.68;10.75;;;;;;;21.13;100.00;99701.25;1751170;81;21049;-89
2022/07/11 04:22:00;;;;;;;13.35;10.75;;;;;;;21.12;100.00;99698.30;1751589;81;21127;-88
2022/07/11 04:24:28;;;;;;;12.78;11.03;;;;;;;21.08;100.00;99701.87;1751313;81;21081;-88
2022/07/11 04:26:55;;;;;;;13.40;11.25;;;;;;;21.07;100.00;99701.56;1751298;81;21085;-88
2022/07/11 04:29:23;;;;;;;15.10;11.80;;;;;;;21.09;100.00;99705.31;1751394;81;21025;-90
2022/07/11 04:31:50;;;;;;;13.55;12.15;;;;;;;21.08;100.00;99709.80;1751355;81;21707;-89
2022/07/11 04:34:17;;;;;;;15.32;12.20;;;;;;;21.08;100.00;99713.77;1751582;81;21118;-92
2022/07/11 04:36:45;;;;;;;15.10;12.30;;;;;;;21.11;100.00;99724.45;1745761;81;21038;-89
2022/07/11 04:39:12;;;;;;;16.32;12.98;;;;;;;21.15;100.00;99725.69;1741147;82;21963;-86
2022/07/11 04:41:41;;;;;;;14.45;12.50;;;;;;;21.14;100.00;99725.88;1740562;82;21014;-89
2022/07/11 04:44:08;;;;;;;15.50;13.75;;;;;;;21.16;100.00;99729.13;1740826;82;21053;-88
2022/07/11 04:46:35;;;;;;;16.05;14.35;;;;;;;21.18;100.00;99730.55;1741062;81;21130;-88
2022/07/11 04:49:03;;;;;;;16.42;13.90;;;;;;;21.19;100.00;99730.05;1740719;82;21635;-86
2022/07/11 04:51:30;;;;;;;16.23;14.50;;;;;;;21.21;100.00;99734.61;1741158;82;21097;-86
2022/07/11 04:53:57;;;;;;;15.83;14.23;;;;;;;21.18;100.00;99735.84;1740949;82;21598;-86
2022/07/11 04:56:24;;;;;;;16.17;13.90;;;;;;;21.17;100.00;99733.41;1741350;82;21017;-87
2022/07/11 04:58:51;;;;;;;17.50;14.05;;;;;;;21.18;100.00;99736.36;1751434;80;21127;-87
2022/07/11 05:01:19;;;;;;;15.90;14.25;;;;;;;21.21;100.00;99743.88;1688056;83;21030;-87
2022/07/11 05:03:46;;;;;;;16.40;13.53;;;;;;;21.21;100.00;99735.44;1707321;82;21058;-87
2022/07/11 05:06:13;;;;;;;17.67;14.85;;;;;;;21.22;100.00;99737.07;1678728;85;21038;-87
2022/07/11 05:08:40;;;;;;;19.52;14.35;;;;;;;21.26;100.00;99737.47;1707984;84;21049;-87
2022/07/11 05:11:07;;;;;;;16.02;14.38;;;;;;;21.30;100.00;99737.34;1679562;85;21745;-88
2022/07/11 05:13:34;;;;;;;13.65;12.35;;;;;;;21.34;100.00;99733.77;1707715;84;21038;-88
2022/07/11 05:16:01;;;;;;;15.85;13.80;;;;;;;21.36;100.00;99740.48;1717285;82;21555;-89
2022/07/11 05:18:29;;;;;;;15.08;13.58;;;;;;;21.38;100.00;99732.34;1718999;82;21062;-89
2022/07/11 05:20:58;;;;;;;16.90;13.68;;;;;;;21.35;100.00;99734.87;1721283;82;21054;-89
2022/07/11 05:23:25;;;;;;;14.15;12.85;;;;;;;21.36;100.00;99739.67;1683804;83;21237;-89
2022/07/11 05:25:52;;;;;;;13.48;12.13;;;;;;;21.34;100.00;99727.15;1751000;80;21902;-90
2022/07/11 05:28:19;;;;;;;17.95;13.22;;;;;;;21.32;100.00;99723.39;1760152;80;21548;-93
2022/07/11 05:30:46;;;;;;;14.07;12.30;;;;;;;21.30;100.00;99721.45;1752386;80;21046;-91
2022/07/11 05:33:13;;;;;;;12.53;11.43;;;;;;;21.30;100.00;99728.59;1752456;80;21096;-90
2022/07/11 05:35:41;;;;;;;12.53;11.15;;;;;;;21.31;100.00;99735.00;1750677;81;21181;-89
2022/07/11 05:38:08;;;;;;;12.55;11.25;;;;;;;21.32;100.00;99741.09;1762758;80;21096;-88
2022/07/11 05:40:35;;;;;;;12.33;11.05;;;;;;;21.33;100.00;99746.20;1761921;80;21701;-89
2022/07/11 05:43:02;;;;;;;11.68;10.50;;;;;;;21.36;100.00;99750.27;1762826;80;21075;-89
2022/07/11 05:45:29;;;;;;;12.93;11.12;;;;;;;21.37;100.00;99751.38;1764696;80;21618;-89
2022/07/11 05:47:56;;;;;;;12.93;10.98;;;;;;;21.37;100.00;99754.02;1755662;80;21102;-90
2022/07/11 05:50:24;;;;;;;12.13;10.38;;;;;;;21.32;100.00;99752.52;1755146;80;21359;-90
2022/07/11 05:52:51;;;;;;;12.03;10.30;;;;;;;21.26;100.00;99751.50;1750876;81;21524;-91
2022/07/11 05:55:18;;;;;;;10.93;9.78;;;;;;;21.27;100.00;99751.02;1756905;80;21100;-90
2022/07/11 05:57:45;;;;;;;11.25;10.03;;;;;;;21.31;100.00;99750.89;1753185;80;21077;-90
2022/07/11 06:00:13;;;;;;;13.18;10.15;;;;;;;21.36;100.00;99751.06;1755492;80;21814;-90
2022/07/11 06:02:44;;;;;;;12.75;9.45;;;;;;;21.40;100.00;99744.35;1759489;80;21534;-91
2022/07/11 06:05:11;;;;;;;9.45;8.58;;;;;;;21.44;100.00;99748.19;1750091;80;21053;-91
2022/07/11 06:10:24;;;;;;;9.38;8.10;;;;;;;21.49;100.00;99760.81;1751200;81;21081;-89
2022/07/11 06:12:51;;;;;;;9.08;8.23;;;;;;;21.52;100.00;99765.70;1775341;80;21124;-90
2022/07/11 06:15:18;;;;;;;10.20;8.78;;;;;;;21.55;100.00;99767.12;1712750;83;21566;-91
2022/07/11 06:17:46;;;;;;;10.82;9.10;;;;;;;21.54;100.00;99766.81;1687770;83;21590;-89
2022/07/11 06:20:13;;;;;;;8.58;7.78;;;;;;;21.53;100.00;99767.34;1763212;80;21044;-89
2022/07/11 06:22:40;;;;;;;9.85;8.73;;;;;;;21.51;100.00;99777.31;1702490;83;21030;-92
2022/07/11 06:25:09;;;;;;;14.03;9.53;;;;;;;21.47;100.00;99776.61;1717577;83;21143;-89
2022/07/11 06:27:36;;;;;;;10.35;8.83;;;;;;;21.38;100.00;99784.78;1724051;82;21073;-90
2022/07/11 06:30:04;;;;;;;10.98;9.30;;;;;;;21.31;100.00;99792.45;1699721;83;21121;-91
2022/07/11 06:32:32;;;;;;;10.10;9.10;;;;;;;21.24;100.00;99782.66;1752768;80;21528;-91
2022/07/11 06:34:59;;;;;;;9.80;8.65;;;;;;;21.20;100.00;99784.10;1758020;80;21089;-91
2022/07/11 06:37:26;;;;;;;10.68;9.08;;;;;;;21.19;100.00;99787.77;1756191;80;21176;-93
2022/07/11 06:39:55;;;;;;;13.40;9.10;;;;;;;21.17;100.00;99792.44;1752837;80;21042;-90
2022/07/11 06:42:23;;;;;;;9.70;8.63;;;;;;;21.14;100.00;99792.04;1755195;80;21085;-90
2022/07/11 06:44:52;;;;;;;8.78;7.85;;;;;;;21.11;100.00;99796.72;1750008;81;21421;-90
2022/07/11 06:47:20;;;;;;;10.95;9.25;;;;;;;21.11;100.00;99801.20;1752892;80;21057;-94
2022/07/11 06:49:47;;;;;;;16.48;8.25;;;;;;;21.05;100.00;99799.39;1756979;80;21116;-91
2022/07/11 06:52:16;;;;;;;11.18;8.55;;;;;;;20.99;100.00;99799.69;1761563;80;21065;-91
2022/07/11 06:54:44;;;;;;;11.22;9.13;;;;;;;20.96;100.00;99805.38;1760604;80;21031;-89
2022/07/11 06:57:11;;;;;;;12.13;8.90;;;;;;;20.92;100.00;99798.88;1767970;80;21084;-90
2022/07/11 06:59:38;;;;;;;10.75;8.93;;;;;;;20.88;100.00;99792.34;1751959;80;21018;-89
2022/07/11 07:02:06;;;;;;;10.90;9.80;;;;;;;20.80;100.00;99799.47;1752956;80;21356;-91
2022/07/11 07:04:36;;;;;;;12.45;9.25;;;;;;;20.75;100.00;99805.08;1757065;80;21037;-89
2022/07/11 07:07:10;;;;;;;11.25;9.75;;;;;;;20.67;100.00;99802.08;1751823;81;21025;-91
2022/07/11 07:09:43;;;;;;;12.58;9.58;;;;;;;20.59;100.00;99795.14;1751471;81;21096;-88
2022/07/11 07:12:14;;;;;;;10.80;9.38;;;;;;;20.55;100.00;99793.13;1751658;81;21116;-89
2022/07/11 07:19:30;;;;;;;11.70;10.32;;;;;;;20.48;100.00;99794.42;1772732;80;21085;-88
2022/07/11 07:21:57;;;;;;;10.88;9.65;;;;;;;20.40;100.00;99790.64;1761547;80;21025;-89
2022/07/11 07:24:24;;;;;;;11.30;10.23;;;;;;;20.37;100.00;99801.12;1781761;80;21324;-89
2022/07/11 07:26:51;;;;;;;13.43;11.03;;;;;;;20.40;100.00;99797.25;1782412;80;21720;-91
2022/07/11 07:29:19;;;;;;;12.82;11.53;;;;;;;20.41;100.00;99805.50;1763102;80;21172;-93
2022/07/11 07:31:46;;;;;;;12.40;11.20;;;;;;;20.40;100.00;99805.98;1766445;80;21089;-89
2022/07/11 07:34:13;;;;;;;13.50;12.25;;;;;;;20.43;100.00;99808.77;1701770;83;21033;-91
2022/07/11 07:36:41;;;;;;;12.98;11.68;;;;;;;20.53;100.00;99818.95;1693835;83;21057;-93
2022/07/11 07:39:08;;;;;;;14.43;11.53;;;;;;;20.58;100.00;99817.83;1703656;84;21616;-90
2022/07/11 07:41:35;;;;;;;15.93;11.15;;;;;;;20.66;100.00;99817.64;1691710;84;21142;-93
2022/07/11 07:44:03;;;;;;;13.28;12.07;;;;;;;20.72;100.00;99819.47;1691351;84;21537;-88
2022/07/11 07:46:30;;;;;;;12.23;11.12;;;;;;;20.77;100.00;99822.38;1691547;84;21506;-88
2022/07/11 07:48:59;;;;;;;13.78;11.93;;;;;;;20.82;100.00;99815.66;1698045;83;21057;-88
2022/07/11 07:51:27;;;;;;;14.10;12.60;;;;;;;20.85;100.00;99814.73;1707937;83;21057;-91
2022/07/11 07:53:54;;;;;;;14.23;12.73;;;;;;;20.87;100.00;99814.55;1720431;83;21811;-89
2022/07/11 07:56:21;;;;;;;13.05;11.73;;;;;;;20.88;100.00;99810.87;1705549;83;21063;-87
2022/07/11 07:58:51;;;;;;;12.00;10.80;;;;;;;20.85;100.00;99809.97;1706789;83;21076;-86
2022/07/11 08:01:36;;;;;;;13.80;10.78;;;;;;;20.77;100.00;99810.47;1690734;84;21050;-85
2022/07/11 08:04:06;;;;;;;12.90;10.25;;;;;;;20.70;100.00;99818.05;1693436;83;21340;-85
2022/07/11 08:06:35;;;;;;;11.95;9.53;;;;;;;20.60;100.00;99815.28;1692279;82;22223;-87
2022/07/11 08:09:06;;;;;;;12.13;9.48;;;;;;;20.57;100.00;99817.52;1691377;84;21113;-85
2022/07/11 08:11:34;;;;;;;9.60;8.55;;;;;;;20.59;100.00;99812.33;1701779;83;21080;-85
2022/07/11 08:14:03;;;;;;;11.57;10.50;;;;;;;20.64;100.00;99819.66;1712010;83;21524;-87
2022/07/11 08:16:32;;;;;;;12.03;10.65;;;;;;;20.64;100.00;99819.66;1691269;84;21582;-87
2022/07/11 08:19:06;;;;;;;12.65;10.68;;;;;;;20.60;100.00;99819.77;1691123;84;21804;-85
2022/07/11 08:21:34;;;;;;;14.47;10.60;;;;;;;20.60;100.00;99818.45;1694888;84;21289;-85
2022/07/11 08:24:02;;;;;;;15.60;11.45;;;;;;;20.67;100.00;99826.41;1708424;84;21034;-85
2022/07/11 08:26:29;;;;;;;14.13;11.43;;;;;;;20.75;100.00;99828.89;1708677;84;21049;-87
2022/07/11 08:28:57;;;;;;;14.35;12.65;;;;;;;20.84;100.00;99825.53;1708660;84;21094;-85
2022/07/11 08:31:25;;;;;;;14.68;12.75;;;;;;;20.94;100.00;99818.81;1708575;84;21842;-85
2022/07/11 08:33:52;;;;;;;15.72;13.35;;;;;;;21.10;100.00;99822.91;1708246;84;21063;-85
2022/07/11 08:36:19;;;;;;;14.60;12.15;;;;;;;21.28;100.00;99816.15;1708296;84;21085;-85
2022/07/11 08:38:46;;;;;;;13.03;11.93;;;;;;;21.42;100.00;99821.76;1750238;81;21353;-86
2022/07/11 08:41:14;;;;;;;12.47;11.33;;;;;;;21.50;100.00;99823.88;1752252;80;21530;-85
2022/07/11 08:43:43;;;;;;;13.18;11.88;;;;;;;21.51;100.00;99827.63;1752031;81;21143;-85
2022/07/11 08:46:13;;;;;;;15.03;12.73;;;;;;;21.54;100.00;99824.59;1752159;80;21040;-85
2022/07/11 08:48:42;;;;;;;15.70;12.20;;;;;;;21.60;100.00;99818.98;1752019;81;21052;-86
2022/07/11 08:51:09;;;;;;;13.75;12.35;;;;;;;21.67;100.00;99817.13;1752056;80;21589;-85
2022/07/11 08:53:44;;;;;;;12.40;11.15;;;;;;;21.78;100.00;99817.02;1752275;81;21025;-84
2022/07/11 08:56:17;;;;;;;13.18;11.78;;;;;;;21.86;100.00;99819.93;1752277;81;21089;-85
2022/07/11 08:58:45;;;;;;;13.50;12.23;;;;;;;21.92;100.00;99816.44;1751732;81;21084;-85
2022/07/11 09:01:19;;;;;;;12.58;11.12;;;;;;;21.95;100.00;99817.35;1752375;81;21060;-85
2022/07/11 09:03:46;;;;;;;13.48;11.88;;;;;;;21.98;100.00;99822.24;1751842;81;21036;-85
2022/07/11 09:06:14;;;;;;;13.80;12.30;;;;;;;22.00;100.00;99814.08;1752210;81;21061;-85
2022/07/11 09:08:41;;;;;;;14.53;12.23;;;;;;;21.96;100.00;99820.31;1751929;80;21017;-87
2022/07/11 09:11:09;;;;;;;14.38;11.10;;;;;;;21.94;100.00;99815.72;1752242;81;21538;-84
2022/07/11 09:13:38;;;;;;;14.83;13.43;;;;;;;21.96;100.00;99818.98;1752108;81;21077;-88
2022/07/11 09:16:08;;;;;;;15.70;13.13;;;;;;;21.96;100.00;99820.31;1751865;81;21076;-90
2022/07/11 09:18:40;;;;;;;14.85;13.45;;;;;;;21.96;100.00;99818.16;1752073;81;21006;-84
2022/07/11 09:26:48;;;;;;;15.23;13.72;;;;;;;22.06;100.00;99817.20;1763046;81;21614;-85
2022/07/11 09:29:20;;;;;;;15.23;13.00;;;;;;;22.12;100.00;99818.20;1764540;81;21022;-84
2022/07/11 09:31:48;;;;;;;13.70;12.25;;;;;;;22.19;100.00;99815.01;1764564;81;21081;-85
2022/07/11 09:34:21;;;;;;;14.15;12.73;;;;;;;22.23;100.00;99814.90;1764814;81;21146;-86
2022/07/11 09:36:54;;;;;;;13.15;11.95;;;;;;;22.25;100.00;99817.33;1764307;81;21794;-86
2022/07/11 09:39:26;;;;;;;13.00;11.80;;;;;;;22.27;100.00;99821.39;1754582;80;21074;-86
2022/07/11 09:41:54;;;;;;;12.82;11.63;;;;;;;22.29;100.00;99823.33;1753468;81;21070;-85
2022/07/11 09:44:28;;;;;;;13.13;11.83;;;;;;;22.28;100.00;99821.70;1753972;81;21077;-84
2022/07/11 09:46:56;;;;;;;12.85;10.72;;;;;;;22.24;100.00;99830.28;1753780;81;21825;-84
2022/07/11 09:49:37;;;;;;;12.85;11.65;;;;;;;22.24;100.00;99828.95;1753809;81;21070;-85
2022/07/11 09:52:13;;;;;;;11.40;10.28;;;;;;;22.22;100.00;99820.70;1753914;81;21098;-85
2022/07/11 09:54:56;;;;;;;11.00;9.90;;;;;;;22.30;100.00;99827.61;1753976;81;21015;-84
2022/07/11 09:57:35;;;;;;;11.33;10.28;;;;;;;22.40;100.00;99828.99;1679399;85;21102;-87
2022/07/11 10:00:07;;;;;;;12.80;10.45;;;;;;;22.46;100.00;99830.29;1686745;84;21121;-86
2022/07/11 10:02:35;;;;;;;10.90;9.80;;;;;;;22.61;100.00;99835.31;1699636;84;21551;-85
2022/07/11 10:05:04;;;;;;;10.32;9.38;;;;;;;22.69;100.00;99828.42;1699500;83;21109;-85
2022/07/11 10:07:33;;;;;;;13.48;9.10;;;;;;;22.66;100.00;99834.15;1699985;84;21078;-86
2022/07/11 10:10:02;;;;;;;9.93;9.00;;;;;;;22.53;100.00;99834.24;1700071;84;21098;-84
2022/07/11 10:12:31;;;;;;;9.60;7.90;;;;;;;22.44;100.00;99832.86;1714908;82;21086;-85
2022/07/11 10:15:07;;;;;;;13.25;9.05;;;;;;;22.31;100.00;99837.16;1707137;84;21049;-87
2022/07/11 10:17:42;;;;;;;9.93;8.93;;;;;;;22.16;100.00;99839.28;1677830;85;21050;-86
2022/07/11 10:20:17;;;;;;;9.78;8.78;;;;;;;21.98;100.00;99839.97;1705107;84;21034;-84
2022/07/11 10:23:22;;;;;;;10.08;9.10;;;;;;;21.86;100.00;99843.78;1705624;83;21109;-86
2022/07/11 10:26:26;;;;;;;10.80;8.53;;;;;;;21.81;100.00;99848.90;1674396;85;21902;-84
2022/07/11 10:29:07;;;;;;;9.63;8.73;;;;;;;21.75;100.00;99855.31;1614909;87;21097;-85
2022/07/11 10:31:34;;;;;;;10.43;8.88;;;;;;;21.70;100.00;99860.43;1725903;82;21543;-85
2022/07/11 10:34:10;;;;;;;9.73;8.45;;;;;;;21.69;100.00;99866.75;1740853;82;21690;-85
2022/07/11 10:36:42;;;;;;;10.72;9.08;;;;;;;21.71;100.00;99867.89;1740595;82;21053;-85
2022/07/11 10:39:29;;;;;;;11.78;8.65;;;;;;;21.74;100.00;99861.66;1736037;82;21111;-85
2022/07/11 10:41:59;;;;;;;8.75;7.85;;;;;;;21.80;100.00;99862.64;1739931;81;21428;-85
2022/07/11 10:44:30;;;;;;;12.45;8.08;;;;;;;21.89;100.00;99852.64;1678834;84;21540;-84
2022/07/11 10:46:58;;;;;;;8.23;7.45;;;;;;;22.02;100.00;99859.75;1744351;81;21089;-85
2022/07/11 10:49:48;;;;;;;9.88;8.20;;;;;;;22.09;100.00;99858.38;1736909;80;21281;-86
2022/07/11 10:52:20;;;;;;;9.35;8.45;;;;;;;22.09;100.00;99854.40;1730851;82;21170;-86
2022/07/11 10:55:33;;;;;;;11.22;8.38;;;;;;;22.04;100.00;99852.38;1730767;82;21052;-86
2022/07/11 10:58:22;;;;;;;9.13;8.20;;;;;;;22.01;100.00;99860.77;1733941;82;21034;-84
2022/07/11 11:01:11;;;;;;;9.28;8.38;;;;;;;22.09;100.00;99859.70;1729588;81;21608;-84
2022/07/11 11:03:40;;;;;;;9.05;8.10;;;;;;;22.37;100.00;99857.55;1734194;82;21041;-84
2022/07/11 11:06:07;;;;;;;10.95;8.78;;;;;;;22.79;100.00;99854.48;1733851;82;21148;-84
2022/07/11 11:08:47;;;;;;;8.50;7.78;;;;;;;23.18;100.00;99861.56;1733745;82;21778;-83
2022/07/11 11:11:26;;;;;;;8.28;6.60;;;;;;;23.44;100.00;99852.55;1732754;82;21014;-84
2022/07/11 11:14:19;;;;;;;7.67;6.87;;;;;;;23.43;100.00;99854.41;1734041;82;21049;-84
2022/07/11 11:16:48;;;;;;;8.13;7.40;;;;;;;23.29;100.00;99856.36;1726653;82;21663;-84
2022/07/11 11:19:51;;;;;;;7.03;6.50;;;;;;;23.20;100.00;99856.86;1704298;82;49659;-88
2022/07/11 11:22:22;;;;;;;7.33;6.58;;;;;;;23.15;100.00;99859.61;1693427;82;21038;-84
2022/07/11 11:24:54;;;;;;;8.00;6.37;;;;;;;22.98;100.00;99864.65;1734236;82;21042;-84
2022/07/11 11:27:25;;;;;;;7.40;6.60;;;;;;;22.98;100.00;99864.65;1734312;82;21505;-85
2022/07/11 11:29:55;;;;;;;7.80;7.00;;;;;;;22.97;100.00;99867.53;1734305;82;21046;-84
2022/07/11 11:32:31;;;;;;;8.40;6.37;;;;;;;22.97;100.00;99870.98;1733974;82;21176;-88
2022/07/11 11:34:59;;;;;;;6.60;5.97;;;;;;;23.01;100.00;99872.69;1734808;81;21072;-85
2022/07/11 11:37:26;;;;;;;7.72;6.60;;;;;;;23.01;100.00;99872.69;1675922;84;21101;-86